createdAt,value
2018-10-19T00:27:06.152Z,102975.64
2018-10-19T00:38:32.570Z,102987.20
2018-10-19T00:43:53.543Z,102999.51
2018-10-19T00:46:21.618Z,103021.27
2018-10-19T00:48:49.686Z,103022.12
2018-10-19T00:51:17.789Z,103020.61
2018-10-19T00:53:45.868Z,103015.50
2018-10-19T00:56:13.982Z,103022.09
2018-10-19T00:58:42.078Z,103024.47
2018-10-19T01:01:10.157Z,103021.56
2018-10-19T01:03:38.223Z,103024.72
2018-10-19T01:06:06.349Z,103022.09
2018-10-19T01:08:34.455Z,103020.03
2018-10-19T01:11:02.613Z,103014.16
2018-10-19T01:28:35.080Z,103016.16
2018-10-19T01:34:28.178Z,103013.36
2018-10-19T01:42:41.102Z,103006.22
2018-10-19T01:45:10.846Z,103002.66
2018-10-19T01:47:39.649Z,102997.11
2018-10-19T01:50:08.313Z,103016.22
2018-10-19T01:52:36.401Z,103009.47
2018-10-19T01:55:04.570Z,103018.89
2018-10-19T01:57:32.637Z,103022.41
2018-10-19T02:00:00.728Z,103016.56
2018-10-19T02:02:28.818Z,103028.62
2018-10-19T02:04:56.913Z,103024.49
2018-10-19T02:07:25.018Z,103022.97
2018-10-19T02:09:53.093Z,103035.34
2018-10-19T02:12:21.214Z,103052.77
2018-10-19T02:26:50.648Z,103070.87
2018-10-19T02:29:18.731Z,103059.84
2018-10-19T02:34:55.960Z,103087.99
2018-10-19T02:37:24.026Z,103084.27
2018-10-19T02:39:52.158Z,103071.59
2018-10-19T04:28:41.478Z,103570.61
2018-10-19T04:37:06.401Z,103565.98
2018-10-19T04:42:26.740Z,103563.97
2018-10-19T04:44:54.769Z,103549.00
2018-10-19T04:47:22.862Z,103545.94
2018-10-19T04:49:50.945Z,103555.28
2018-10-19T04:52:19.025Z,103547.69
2018-10-19T04:54:47.165Z,103553.31
2018-10-19T04:57:15.363Z,103465.39
2018-10-19T04:59:43.363Z,103450.72
2018-10-19T05:02:11.447Z,103439.89
2018-10-19T05:04:39.603Z,103422.20
2018-10-19T05:07:07.653Z,103414.33
2018-10-19T05:09:35.738Z,103407.83
2018-10-19T05:12:03.801Z,103409.14
2018-10-19T05:48:39.887Z,103413.53
2018-10-19T05:51:08.444Z,103418.23
2018-10-19T05:53:36.578Z,103419.27
2018-10-19T05:56:04.903Z,103407.14
2018-10-19T05:58:32.958Z,103407.30
2018-10-19T06:01:01.043Z,103404.12
2018-10-19T06:03:29.134Z,103413.20
2018-10-19T06:05:57.225Z,103409.41
2018-10-19T06:08:25.318Z,103410.95
2018-10-19T06:10:53.442Z,103413.82
2018-10-19T06:13:39.515Z,103419.16
2018-10-19T06:16:07.598Z,103421.52
2018-10-19T06:18:35.694Z,103422.73
2018-10-19T06:23:56.558Z,103420.59
2018-10-19T06:26:28.528Z,103440.70
2018-10-19T06:29:03.323Z,103434.59
2018-10-19T06:31:31.398Z,103431.31
2018-10-19T06:33:59.488Z,103439.95
2018-10-19T06:36:27.588Z,103436.16
2018-10-19T06:38:55.890Z,103426.47
2018-10-19T06:41:24.155Z,103424.02
2018-10-19T06:43:52.257Z,103433.69
2018-10-19T06:46:20.457Z,103433.02
2018-10-19T06:48:48.597Z,103431.18
2018-10-19T06:51:16.689Z,103440.43
2018-10-19T06:53:44.758Z,103439.89
2018-10-19T06:56:13.019Z,103439.28
2018-10-19T06:58:41.020Z,103431.36
2018-10-19T07:01:09.141Z,103435.33
2018-10-19T07:03:37.274Z,103441.95
2018-10-19T07:06:05.683Z,103441.75
2018-10-19T07:08:33.749Z,103441.94
2018-10-19T07:11:01.933Z,103449.94
2018-10-19T07:22:22.624Z,103459.08
2018-10-19T07:24:51.066Z,103458.32
2018-10-19T07:27:19.230Z,103457.23
2018-10-19T07:29:47.327Z,103454.14
2018-10-19T07:32:15.495Z,103454.26
2018-10-19T07:34:43.609Z,103460.49
2018-10-19T07:37:11.710Z,103472.99
2018-10-19T07:39:39.781Z,103483.73
2018-10-19T07:42:07.939Z,103473.73
2018-10-19T07:44:36.005Z,103493.82
2018-10-19T07:47:04.122Z,103512.73
2018-10-19T07:49:32.209Z,103523.77
2018-10-19T07:52:00.342Z,103514.83
2018-10-19T07:54:28.451Z,103512.96
2018-10-19T07:56:56.521Z,103526.59
2018-10-19T07:59:24.577Z,103531.75
2018-10-19T08:01:52.658Z,103518.02
2018-10-19T08:04:20.737Z,103540.75
2018-10-19T08:06:48.865Z,103504.18
2018-10-19T08:09:16.962Z,103504.16
2018-10-19T08:11:45.041Z,103504.70
2018-10-19T08:26:31.778Z,103444.96
2018-10-19T08:28:59.889Z,103396.05
2018-10-19T08:31:27.946Z,103356.09
2018-10-19T08:33:56.038Z,103403.89
2018-10-19T08:36:24.240Z,103367.66
2018-10-19T08:38:52.337Z,103369.52
2018-10-19T08:41:20.593Z,103297.34
2018-10-19T08:43:48.646Z,103296.64
2018-10-19T08:46:22.001Z,103252.67
2018-10-19T08:48:50.101Z,103220.80
2018-10-19T08:51:18.338Z,103198.09
2018-10-19T08:53:46.322Z,103181.03
2018-10-19T08:56:14.400Z,103159.86
2018-10-19T08:58:42.490Z,103150.77
2018-10-19T09:01:10.573Z,103143.45
2018-10-19T09:03:38.724Z,103115.08
2018-10-19T09:06:06.823Z,103103.55
2018-10-19T09:08:34.877Z,103090.80
2018-10-19T09:11:03.047Z,103059.73
2018-10-19T09:13:31.051Z,103021.72
2018-10-19T09:15:59.126Z,102991.11
2018-10-19T09:18:27.540Z,102965.81
2018-10-19T09:26:50.161Z,102948.52
2018-10-19T09:29:18.206Z,102931.02
2018-10-19T09:31:46.301Z,102915.30
2018-10-19T09:34:14.389Z,102908.32
2018-10-19T09:36:42.552Z,102906.73
2018-10-19T09:39:12.768Z,102910.83
2018-10-19T09:41:40.809Z,102914.55
2018-10-19T09:44:08.911Z,102917.63
2018-10-19T09:46:39.164Z,102917.06
2018-10-19T09:49:07.980Z,102914.39
2018-10-19T09:51:36.572Z,102912.14
2018-10-19T09:54:04.681Z,102905.75
2018-10-19T09:56:32.797Z,102899.83
2018-10-19T09:59:00.988Z,102898.34
2018-10-19T10:01:30.095Z,102887.56
2018-10-19T10:03:58.346Z,102890.19
2018-10-19T10:06:26.495Z,102915.72
2018-10-19T10:08:54.807Z,102942.20
2018-10-19T10:11:22.837Z,102947.31
2018-10-19T10:23:03.802Z,102826.02
2018-10-19T11:19:53.068Z,102883.64
2018-10-19T11:22:35.600Z,102945.61
2018-10-19T11:25:03.746Z,102863.68
2018-10-19T12:16:06.269Z,103047.88
2018-10-19T12:18:34.424Z,102982.34
2018-10-19T12:29:51.086Z,102816.47
2018-10-19T12:32:19.175Z,102866.75
2018-10-19T12:34:47.259Z,102876.18
2018-10-19T12:37:15.466Z,102899.23
2018-10-19T12:39:43.548Z,102913.20
2018-10-19T12:42:11.611Z,102950.91
2018-10-19T12:44:39.689Z,102993.52
2018-10-19T12:47:19.125Z,102982.25
2018-10-19T12:49:47.210Z,102954.61
2018-10-19T12:52:15.327Z,102928.77
2018-10-19T12:54:43.404Z,102920.82
2018-10-19T12:57:11.555Z,102924.53
2018-10-19T12:59:39.592Z,102906.44
2018-10-19T13:02:11.717Z,102914.82
2018-10-19T13:04:39.799Z,102902.66
2018-10-19T13:07:08.216Z,102921.17
2018-10-19T13:09:36.220Z,102910.34
2018-10-19T13:12:04.381Z,102919.02
2018-10-19T14:15:20.698Z,102610.96
2018-10-19T14:17:48.806Z,102617.48
2018-10-19T14:20:16.882Z,102623.90
2018-10-19T14:22:44.970Z,102624.67
2018-10-19T14:25:13.725Z,102638.50
2018-10-19T14:28:44.335Z,102648.52
2018-10-19T14:31:12.435Z,102643.47
2018-10-19T14:33:40.586Z,102636.59
2018-10-19T14:36:08.634Z,102630.03
2018-10-19T14:38:36.773Z,102645.98
2018-10-19T14:41:04.914Z,102652.14
2018-10-19T14:43:32.950Z,102663.63
2018-10-19T14:46:01.043Z,102665.36
2018-10-19T14:48:29.144Z,102667.84
2018-10-19T14:50:57.250Z,102666.19
2018-10-19T14:53:25.293Z,102679.00
2018-10-19T14:55:53.373Z,102692.13
2018-10-19T14:58:21.496Z,102697.00
2018-10-19T15:00:49.621Z,102708.48
2018-10-19T15:03:17.714Z,102709.87
2018-10-19T15:05:45.797Z,102717.75
2018-10-19T15:08:13.905Z,102723.50
2018-10-19T15:10:42.136Z,102727.72
2018-10-19T15:13:10.062Z,102739.00
2018-10-19T15:15:38.235Z,102749.48
2018-10-19T15:18:06.389Z,102753.27
2018-10-19T15:26:28.982Z,102790.11
2018-10-19T15:28:57.113Z,102795.05
2018-10-19T15:31:25.149Z,102845.45
2018-10-19T15:33:53.282Z,102880.28
2018-10-19T15:36:21.379Z,102887.69
2018-10-19T15:38:49.497Z,102896.38
2018-10-19T15:41:17.623Z,102904.80
2018-10-19T15:43:46.060Z,102922.98
2018-10-19T15:46:14.175Z,102940.88
2018-10-19T15:48:42.272Z,102961.84
2018-10-19T15:51:10.395Z,102976.38
2018-10-19T15:53:38.508Z,102971.67
2018-10-19T16:18:55.074Z,102982.52
2018-10-19T16:21:23.141Z,102985.82
2018-10-19T16:23:57.851Z,102986.38
2018-10-19T16:26:35.884Z,102981.57
2018-10-19T16:29:04.034Z,102972.00
2018-10-19T17:17:03.609Z,103058.30
2018-10-19T17:19:31.720Z,103054.50
2018-10-19T17:22:18.589Z,103054.74
2018-10-19T17:25:07.049Z,103054.26
2018-10-19T17:30:27.532Z,103045.06
2018-10-19T17:32:55.639Z,103036.27
2018-10-19T17:35:23.699Z,103043.61
2018-10-19T17:37:52.608Z,103033.67
2018-10-19T17:40:20.701Z,103036.20
2018-10-19T17:42:48.905Z,103041.53
2018-10-19T17:45:17.101Z,103038.80
2018-10-19T17:47:45.151Z,103048.28
2018-10-19T17:50:13.314Z,103049.73
2018-10-19T17:52:41.421Z,103047.02
2018-10-19T17:55:10.414Z,103049.27
2018-10-19T17:57:38.985Z,103052.11
2018-10-19T18:00:08.324Z,103048.77
2018-10-19T18:02:36.341Z,103055.21
2018-10-19T18:05:04.673Z,103054.76
2018-10-19T18:07:32.754Z,103057.59
2018-10-19T18:10:00.853Z,103058.37
2018-10-19T18:12:28.993Z,103051.06
2018-10-19T18:14:57.105Z,103055.97
2018-10-19T18:17:25.194Z,103054.28
2018-10-19T18:22:45.940Z,103050.36
2018-10-19T18:25:14.022Z,103059.95
2018-10-19T19:25:26.225Z,103086.69
2018-10-19T19:31:08.990Z,103090.45
2018-10-19T19:33:42.321Z,103091.48
2018-10-19T19:36:10.461Z,103095.20
2018-10-19T19:38:38.569Z,103092.27
2018-10-19T19:41:12.093Z,103089.76
2018-10-19T19:43:40.192Z,103086.34
2018-10-19T19:46:08.274Z,103089.84
2018-10-19T19:48:41.734Z,103090.16
2018-10-19T19:51:09.832Z,103084.64
2018-10-19T19:53:37.977Z,103087.79
2018-10-19T19:56:06.112Z,103080.63
2018-10-19T19:58:34.203Z,103091.41
2018-10-19T20:01:02.301Z,103084.95
2018-10-19T20:03:30.428Z,103091.36
2018-10-19T20:05:58.575Z,103090.85
2018-10-19T20:08:27.049Z,103088.77
2018-10-19T20:10:55.191Z,103093.31
2018-10-19T21:15:14.936Z,103078.23
2018-10-19T21:17:44.219Z,103076.12
2018-10-19T21:20:23.272Z,103080.02
2018-10-19T21:22:51.455Z,103072.86
2018-10-19T22:13:56.183Z,103120.38
2018-10-19T22:16:24.301Z,103137.91
2018-10-19T22:18:52.648Z,103146.33
2018-10-19T22:21:26.636Z,103147.59
2018-10-19T22:23:54.796Z,103145.90
2018-10-19T23:20:54.005Z,103176.23
